Time;durP1;ratioP1;P1;durP2;ratioP2;P2;SDS_P1;SDS_P2;PMS_P1;PMS_P2;Temp;Humidity;BMP_temperature;BMP_pressure;BME280_temperature;BME280_humidity;BME280_pressure;Samples;Min_cycle;Max_cycle;Signal;HPM_P1;HPM_P2
2021/07/26 00:01:56;;;;;;;3.60;2.03;;;;;;;;;;5034944;28;20481;-79
2021/07/26 00:04:21;;;;;;;2.53;2.30;;;;;;;;;;5034171;28;20035;-79
2021/07/26 00:06:47;;;;;;;3.20;2.53;;;;;;;;;;5034770;28;20264;-80
2021/07/26 00:09:12;;;;;;;3.88;1.90;;;;;;;;;;5034724;28;20331;-79
2021/07/26 00:11:37;;;;;;;2.63;1.90;;;;;;;;;;5033600;28;20087;-79
2021/07/26 00:14:05;;;;;;;3.00;2.10;;;;;;;;;;5014636;28;20041;-79
2021/07/26 00:16:33;;;;;;;2.63;2.03;;;;;;;;;;5014558;28;20692;-78
2021/07/26 00:18:58;;;;;;;3.13;2.40;;;;;;;;;;5013824;28;20033;-78
2021/07/26 00:21:23;;;;;;;4.33;2.40;;;;;;;;;;5014513;28;20030;-78
2021/07/26 00:23:48;;;;;;;5.57;2.20;;;;;;;;;;5014281;28;20257;-78
2021/07/26 00:26:13;;;;;;;2.80;2.13;;;;;;;;;;5014552;28;20719;-78
2021/07/26 00:28:41;;;;;;;2.97;2.20;;;;;;;;;;5014820;28;20032;-78
2021/07/26 00:31:06;;;;;;;2.90;2.10;;;;;;;;;;5014150;28;20025;-78
2021/07/26 00:34:05;;;;;;;2.70;2.35;;;;;;;;;;5014086;28;20507;-77
2021/07/26 00:36:30;;;;;;;3.92;2.65;;;;;;;;;;5013424;28;20625;-78
2021/07/26 00:38:55;;;;;;;2.97;2.30;;;;;;;;;;5013724;28;20116;-80
2021/07/26 00:41:22;;;;;;;2.43;1.97;;;;;;;;;;5014265;28;20018;-77
2021/07/26 00:43:49;;;;;;;2.80;2.13;;;;;;;;;;5014326;28;20687;-76
2021/07/26 00:46:15;;;;;;;3.55;2.15;;;;;;;;;;5012153;28;20104;-76
2021/07/26 00:48:43;;;;;;;2.63;2.42;;;;;;;;;;5029644;28;20101;-77
2021/07/26 00:51:08;;;;;;;3.15;2.35;;;;;;;;;;5033831;28;20021;-76
2021/07/26 00:53:34;;;;;;;2.73;2.27;;;;;;;;;;5032445;28;20418;-77
2021/07/26 00:55:59;;;;;;;3.53;2.30;;;;;;;;;;5022682;28;20649;-77
2021/07/26 00:58:27;;;;;;;3.00;2.60;;;;;;;;;;5032111;28;20027;-77
2021/07/26 01:00:52;;;;;;;4.55;2.22;;;;;;;;;;5033010;28;20013;-77
2021/07/26 01:03:17;;;;;;;3.33;2.20;;;;;;;;;;5033742;28;20436;-77
2021/07/26 01:05:43;;;;;;;3.25;2.65;;;;;;;;;;5013566;28;20095;-77
2021/07/26 01:08:08;;;;;;;4.18;2.70;;;;;;;;;;5014010;28;20480;-77
2021/07/26 01:10:33;;;;;;;3.47;2.40;;;;;;;;;;5014016;28;20489;-77
2021/07/26 01:13:03;;;;;;;3.90;2.37;;;;;;;;;;5019442;28;20345;-77
2021/07/26 01:15:28;;;;;;;3.60;2.30;;;;;;;;;;5031461;28;20379;-77
2021/07/26 01:18:14;;;;;;;4.90;2.60;;;;;;;;;;5032545;28;20164;-77
2021/07/26 01:20:39;;;;;;;4.05;2.83;;;;;;;;;;5033195;28;20052;-77
2021/07/26 01:23:07;;;;;;;3.10;2.73;;;;;;;;;;5033638;28;20057;-76
2021/07/26 01:25:36;;;;;;;2.88;2.58;;;;;;;;;;5033029;28;20279;-76
2021/07/26 01:28:01;;;;;;;4.70;2.50;;;;;;;;;;5033847;28;20026;-76
2021/07/26 01:30:26;;;;;;;3.57;2.53;;;;;;;;;;5033464;28;20021;-77
2021/07/26 01:32:51;;;;;;;5.00;2.45;;;;;;;;;;5032286;28;20307;-77
2021/07/26 01:35:19;;;;;;;3.57;2.43;;;;;;;;;;5033272;28;20053;-78
2021/07/26 01:37:44;;;;;;;4.50;3.05;;;;;;;;;;5026622;28;20351;-77
2021/07/26 01:40:09;;;;;;;3.13;2.40;;;;;;;;;;5031387;28;20232;-77
2021/07/26 01:42:40;;;;;;;4.20;2.80;;;;;;;;;;5032963;28;20267;-77
2021/07/26 01:45:06;;;;;;;4.95;2.60;;;;;;;;;;5033339;28;20048;-79
2021/07/26 01:47:34;;;;;;;2.60;2.40;;;;;;;;;;5032408;28;20025;-79
2021/07/26 01:50:01;;;;;;;3.28;2.70;;;;;;;;;;5033180;28;20033;-79
2021/07/26 01:52:26;;;;;;;3.85;2.78;;;;;;;;;;5033378;28;20101;-78
2021/07/26 01:54:52;;;;;;;3.00;2.70;;;;;;;;;;5031218;28;20109;-78
2021/07/26 01:57:20;;;;;;;3.67;2.63;;;;;;;;;;5014010;28;20053;-78
2021/07/26 01:59:46;;;;;;;3.22;2.58;;;;;;;;;;5034116;28;20022;-78
2021/07/26 02:02:12;;;;;;;4.55;2.75;;;;;;;;;;5036587;28;20514;-78
2021/07/26 02:04:39;;;;;;;5.60;2.70;;;;;;;;;;5023783;28;20041;-78
2021/07/26 02:07:07;;;;;;;4.95;2.40;;;;;;;;;;5017301;28;20640;-79
2021/07/26 02:09:33;;;;;;;3.55;2.78;;;;;;;;;;5017473;28;20440;-80
2021/07/26 02:11:59;;;;;;;3.95;2.50;;;;;;;;;;5017351;28;20348;-78
2021/07/26 02:14:24;;;;;;;4.80;2.90;;;;;;;;;;5016834;28;20029;-78
2021/07/26 02:16:53;;;;;;;6.47;2.67;;;;;;;;;;5017397;28;20033;-78
2021/07/26 02:19:20;;;;;;;4.97;2.38;;;;;;;;;;5036721;28;20256;-78
2021/07/26 02:21:46;;;;;;;2.85;2.33;;;;;;;;;;5036644;28;20029;-78
2021/07/26 02:24:11;;;;;;;2.80;2.47;;;;;;;;;;5035666;28;20029;-77
2021/07/26 02:26:36;;;;;;;2.85;2.40;;;;;;;;;;5036778;28;20261;-76
2021/07/26 02:29:06;;;;;;;3.27;2.20;;;;;;;;;;5035639;28;20033;-76
2021/07/26 02:31:31;;;;;;;4.15;2.53;;;;;;;;;;5036476;28;20253;-78
2021/07/26 02:33:56;;;;;;;4.03;2.37;;;;;;;;;;5024843;28;20526;-77
2021/07/26 02:36:22;;;;;;;4.75;2.70;;;;;;;;;;5016751;28;20292;-79
2021/07/26 02:38:47;;;;;;;3.60;2.97;;;;;;;;;;5016763;28;20372;-79
2021/07/26 02:41:13;;;;;;;3.70;2.57;;;;;;;;;;5016807;28;20257;-78
2021/07/26 02:43:38;;;;;;;3.25;2.72;;;;;;;;;;5032895;28;20284;-79
2021/07/26 02:46:05;;;;;;;3.83;3.00;;;;;;;;;;5036681;28;20074;-79
2021/07/26 02:48:33;;;;;;;3.42;2.53;;;;;;;;;;5036526;28;20021;-79
2021/07/26 02:51:00;;;;;;;5.13;2.67;;;;;;;;;;5035389;28;20352;-79
2021/07/26 02:53:28;;;;;;;4.65;2.63;;;;;;;;;;5036138;28;20363;-79
2021/07/26 02:55:55;;;;;;;5.15;2.58;;;;;;;;;;5035991;28;20478;-78
2021/07/26 02:58:21;;;;;;;3.15;2.50;;;;;;;;;;5036163;28;20463;-78
2021/07/26 03:00:49;;;;;;;3.65;2.60;;;;;;;;;;5036179;28;20017;-78
2021/07/26 03:03:17;;;;;;;4.90;2.67;;;;;;;;;;5035449;28;20095;-78
2021/07/26 03:05:45;;;;;;;3.10;2.50;;;;;;;;;;5035832;28;20109;-79
2021/07/26 03:08:11;;;;;;;5.65;2.83;;;;;;;;;;5035907;28;20029;-79
2021/07/26 03:10:38;;;;;;;2.95;2.60;;;;;;;;;;5031215;28;20036;-79
2021/07/26 03:13:04;;;;;;;4.68;2.80;;;;;;;;;;5016184;28;20022;-79
2021/07/26 03:15:29;;;;;;;3.97;2.83;;;;;;;;;;5015969;28;20044;-79
2021/07/26 03:17:56;;;;;;;4.43;2.90;;;;;;;;;;5016107;28;20257;-78
2021/07/26 03:20:21;;;;;;;3.78;2.72;;;;;;;;;;5031230;28;20642;-78
2021/07/26 03:22:51;;;;;;;3.63;3.00;;;;;;;;;;5034666;28;20025;-78
2021/07/26 03:25:16;;;;;;;2.92;2.50;;;;;;;;;;5035807;28;20017;-79
2021/07/26 03:27:42;;;;;;;4.65;2.70;;;;;;;;;;5031612;28;20428;-78
2021/07/26 03:30:07;;;;;;;3.67;2.42;;;;;;;;;;5033427;28;20041;-78
2021/07/26 03:32:32;;;;;;;3.80;2.70;;;;;;;;;;5035196;28;20040;-78
2021/07/26 03:34:58;;;;;;;4.60;2.80;;;;;;;;;;5023073;28;20042;-78
2021/07/26 03:37:25;;;;;;;4.40;2.80;;;;;;;;;;5030148;28;20706;-78
2021/07/26 03:39:53;;;;;;;3.13;2.65;;;;;;;;;;5014518;28;20018;-78
2021/07/26 03:42:18;;;;;;;3.08;2.78;;;;;;;;;;5015229;28;20029;-78
2021/07/26 03:44:43;;;;;;;2.78;2.50;;;;;;;;;;5015428;28;20429;-78
2021/07/26 03:47:08;;;;;;;3.50;2.77;;;;;;;;;;5023238;28;20048;-78
2021/07/26 03:49:34;;;;;;;4.38;2.70;;;;;;;;;;5015201;28;20615;-78
2021/07/26 03:52:01;;;;;;;4.22;2.70;;;;;;;;;;5014924;28;20057;-78
2021/07/26 03:54:26;;;;;;;3.33;2.63;;;;;;;;;;5015293;28;20033;-78
2021/07/26 03:56:55;;;;;;;3.40;2.57;;;;;;;;;;5025241;28;20026;-78
2021/07/26 03:59:20;;;;;;;4.35;2.60;;;;;;;;;;5033644;28;20268;-79
2021/07/26 04:01:45;;;;;;;3.70;2.40;;;;;;;;;;5034514;28;20044;-78
2021/07/26 04:04:11;;;;;;;3.87;2.50;;;;;;;;;;5033942;28;20264;-79
2021/07/26 04:06:39;;;;;;;3.23;2.33;;;;;;;;;;5032366;28;20267;-79
2021/07/26 04:09:06;;;;;;;5.60;2.80;;;;;;;;;;5033803;28;20333;-87
2021/07/26 04:11:36;;;;;;;3.50;2.65;;;;;;;;;;5034985;28;20108;-84
2021/07/26 04:14:05;;;;;;;5.20;2.90;;;;;;;;;;5032519;28;20021;-82
2021/07/26 04:16:35;;;;;;;4.90;2.42;;;;;;;;;;5031896;28;20025;-80
2021/07/26 04:19:02;;;;;;;5.25;3.30;;;;;;;;;;5034234;28;20045;-84
2021/07/26 04:21:34;;;;;;;5.22;2.63;;;;;;;;;;5032575;28;20147;-81
2021/07/26 04:24:03;;;;;;;3.55;2.60;;;;;;;;;;5029116;28;20400;-77
2021/07/26 04:26:28;;;;;;;4.57;2.65;;;;;;;;;;5030779;28;20025;-78
2021/07/26 04:28:54;;;;;;;2.55;2.35;;;;;;;;;;5034094;28;20104;-81
2021/07/26 04:31:21;;;;;;;3.67;2.70;;;;;;;;;;5035547;28;20179;-81
2021/07/26 04:33:47;;;;;;;2.67;2.47;;;;;;;;;;5033194;28;20037;-80
2021/07/26 04:36:17;;;;;;;2.70;2.50;;;;;;;;;;5031962;28;20033;-81
2021/07/26 04:38:42;;;;;;;3.33;2.55;;;;;;;;;;5032793;28;20248;-81
2021/07/26 04:41:09;;;;;;;2.90;2.60;;;;;;;;;;5033664;28;20013;-82
2021/07/26 04:43:36;;;;;;;3.67;2.47;;;;;;;;;;5033771;28;20271;-81
2021/07/26 04:46:04;;;;;;;3.00;2.50;;;;;;;;;;5033089;28;20029;-81
2021/07/26 04:48:30;;;;;;;3.35;3.05;;;;;;;;;;5015566;28;20021;-81
2021/07/26 04:50:55;;;;;;;3.77;2.60;;;;;;;;;;5025731;28;20467;-79
2021/07/26 04:53:20;;;;;;;4.47;2.55;;;;;;;;;;5027708;28;20318;-88
2021/07/26 04:55:46;;;;;;;3.42;2.60;;;;;;;;;;5031552;28;20052;-82
2021/07/26 04:58:11;;;;;;;2.65;2.40;;;;;;;;;;5033378;28;20316;-79
2021/07/26 05:00:38;;;;;;;4.97;2.80;;;;;;;;;;5032700;28;20073;-79
2021/07/26 05:03:09;;;;;;;3.28;2.47;;;;;;;;;;5033033;28;20260;-79
2021/07/26 05:05:35;;;;;;;3.92;2.67;;;;;;;;;;5032432;28;20069;-74
2021/07/26 05:08:03;;;;;;;3.88;2.72;;;;;;;;;;5033295;28;20025;-74
2021/07/26 05:10:29;;;;;;;3.97;2.60;;;;;;;;;;5030117;28;20095;-82
2021/07/26 05:12:54;;;;;;;6.70;2.70;;;;;;;;;;5033167;28;20056;-79
2021/07/26 05:15:19;;;;;;;5.18;2.92;;;;;;;;;;5029812;28;20288;-80
2021/07/26 05:17:44;;;;;;;3.70;2.85;;;;;;;;;;5031453;28;20025;-81
2021/07/26 05:20:15;;;;;;;3.00;2.70;;;;;;;;;;5033532;28;20159;-80
2021/07/26 05:22:42;;;;;;;4.95;2.80;;;;;;;;;;5031821;28;20272;-80
2021/07/26 05:25:11;;;;;;;4.35;2.75;;;;;;;;;;5027901;28;20082;-79
2021/07/26 05:27:36;;;;;;;3.70;2.97;;;;;;;;;;5030801;28;20025;-80
2021/07/26 05:30:05;;;;;;;4.10;2.90;;;;;;;;;;5029464;28;20021;-80
2021/07/26 05:32:31;;;;;;;4.25;2.70;;;;;;;;;;5031844;28;20498;-80
2021/07/26 05:34:56;;;;;;;3.20;2.90;;;;;;;;;;5032406;28;20049;-80
2021/07/26 05:37:24;;;;;;;6.53;2.73;;;;;;;;;;5033204;28;20021;-80
2021/07/26 05:39:49;;;;;;;3.90;2.90;;;;;;;;;;5032816;28;20276;-80
2021/07/26 05:42:18;;;;;;;3.73;2.93;;;;;;;;;;5033125;28;20017;-80
2021/07/26 05:44:44;;;;;;;4.15;3.22;;;;;;;;;;5032680;28;20290;-80
2021/07/26 05:47:09;;;;;;;5.30;3.28;;;;;;;;;;5032821;28;20097;-80
2021/07/26 05:49:35;;;;;;;4.03;3.15;;;;;;;;;;5032154;28;20021;-80
2021/07/26 05:52:00;;;;;;;4.70;3.25;;;;;;;;;;5033069;28;20014;-80
2021/07/26 05:54:25;;;;;;;4.85;3.45;;;;;;;;;;5033033;28;20025;-79
2021/07/26 05:56:51;;;;;;;4.55;3.33;;;;;;;;;;5032037;28;20025;-79
2021/07/26 05:59:16;;;;;;;4.22;3.30;;;;;;;;;;5024950;28;20013;-79
2021/07/26 06:01:48;;;;;;;5.28;3.10;;;;;;;;;;5031823;28;20464;-79
2021/07/26 06:04:16;;;;;;;6.82;3.55;;;;;;;;;;5031838;28;20017;-79
2021/07/26 06:06:43;;;;;;;4.38;3.45;;;;;;;;;;5032103;28;20017;-79
2021/07/26 06:09:08;;;;;;;4.45;3.60;;;;;;;;;;5032424;28;20021;-79
2021/07/26 06:11:35;;;;;;;30.83;3.72;;;;;;;;;;5032265;28;20518;-79
2021/07/26 06:14:01;;;;;;;5.10;3.22;;;;;;;;;;5031764;28;20131;-79
2021/07/26 06:16:28;;;;;;;6.15;3.05;;;;;;;;;;5032195;28;20157;-78
2021/07/26 06:18:53;;;;;;;4.78;3.08;;;;;;;;;;5031281;28;20026;-78
2021/07/26 06:21:21;;;;;;;5.27;3.33;;;;;;;;;;5032761;28;20455;-78
2021/07/26 06:23:46;;;;;;;5.25;3.30;;;;;;;;;;5032188;28;20252;-78
2021/07/26 06:26:11;;;;;;;3.58;3.05;;;;;;;;;;5032734;28;20083;-78
2021/07/26 06:28:37;;;;;;;3.80;3.10;;;;;;;;;;5032076;28;20072;-78
2021/07/26 06:31:03;;;;;;;4.93;3.30;;;;;;;;;;5032711;28;20314;-79
2021/07/26 06:33:31;;;;;;;4.30;3.35;;;;;;;;;;5031529;28;20535;-78
2021/07/26 06:35:56;;;;;;;12.52;3.58;;;;;;;;;;5032313;28;20062;-79
2021/07/26 06:38:21;;;;;;;4.85;3.10;;;;;;;;;;5027108;28;20062;-79
2021/07/26 06:40:46;;;;;;;6.32;3.25;;;;;;;;;;5012984;28;20018;-78
2021/07/26 06:43:15;;;;;;;5.93;3.13;;;;;;;;;;5013120;28;20543;-78
2021/07/26 06:45:40;;;;;;;5.45;2.92;;;;;;;;;;5014517;28;20265;-78
2021/07/26 06:48:08;;;;;;;5.30;3.10;;;;;;;;;;5034811;28;20083;-78
2021/07/26 06:50:33;;;;;;;6.95;3.22;;;;;;;;;;5036176;28;20486;-78
2021/07/26 06:52:58;;;;;;;4.38;2.95;;;;;;;;;;5026694;28;20026;-79
2021/07/26 06:55:24;;;;;;;3.20;2.83;;;;;;;;;;5020831;28;20092;-80
2021/07/26 06:57:51;;;;;;;4.60;2.92;;;;;;;;;;5033282;28;20367;-80
2021/07/26 07:00:17;;;;;;;2.97;2.70;;;;;;;;;;5016050;28;20356;-80
2021/07/26 07:02:42;;;;;;;5.13;3.10;;;;;;;;;;5015942;28;20079;-80
2021/07/26 07:05:08;;;;;;;3.10;2.85;;;;;;;;;;5015460;28;20105;-80
2021/07/26 07:07:35;;;;;;;3.05;2.65;;;;;;;;;;5015727;28;20364;-80
2021/07/26 07:10:00;;;;;;;4.35;2.75;;;;;;;;;;5016368;28;20022;-80
2021/07/26 07:12:28;;;;;;;6.07;2.50;;;;;;;;;;5032356;28;20036;-80
2021/07/26 07:14:53;;;;;;;7.10;2.78;;;;;;;;;;5034226;28;20606;-80
2021/07/26 07:17:20;;;;;;;4.57;2.70;;;;;;;;;;5035855;28;20017;-80
2021/07/26 07:19:48;;;;;;;4.93;2.60;;;;;;;;;;5033623;28;20363;-80
2021/07/26 07:22:18;;;;;;;3.35;2.80;;;;;;;;;;5030918;28;20024;-79
2021/07/26 07:25:03;;;;;;;3.45;2.90;;;;;;;;;;5035095;28;20025;-78
2021/07/26 07:27:28;;;;;;;3.60;2.67;;;;;;;;;;5020193;28;20037;-78
2021/07/26 07:29:55;;;;;;;5.83;2.53;;;;;;;;;;5031807;28;20415;-78
2021/07/26 07:32:20;;;;;;;5.88;2.70;;;;;;;;;;5030610;28;20149;-78
2021/07/26 07:34:46;;;;;;;5.87;2.60;;;;;;;;;;5026542;28;20049;-78
2021/07/26 07:37:13;;;;;;;5.35;2.55;;;;;;;;;;5034971;28;20339;-78
2021/07/26 07:39:39;;;;;;;5.32;2.65;;;;;;;;;;5034793;28;20021;-78
2021/07/26 07:42:05;;;;;;;3.67;2.75;;;;;;;;;;5029739;28;20025;-78
2021/07/26 07:44:32;;;;;;;3.50;2.63;;;;;;;;;;5015404;28;20352;-78
2021/07/26 07:47:01;;;;;;;3.10;2.42;;;;;;;;;;5020500;28;20014;-78
2021/07/26 07:49:27;;;;;;;4.03;2.90;;;;;;;;;;5021797;28;20029;-78
2021/07/26 07:51:52;;;;;;;3.42;2.70;;;;;;;;;;5033793;28;20018;-78
2021/07/26 07:54:18;;;;;;;4.30;2.67;;;;;;;;;;5033833;28;20040;-78
2021/07/26 07:56:48;;;;;;;3.07;2.30;;;;;;;;;;5033434;28;20363;-78
2021/07/26 07:59:13;;;;;;;4.30;2.42;;;;;;;;;;5028418;28;20710;-78
2021/07/26 08:01:42;;;;;;;2.50;2.30;;;;;;;;;;5032309;28;20036;-78
2021/07/26 08:04:10;;;;;;;2.65;2.33;;;;;;;;;;5030519;28;20272;-78
2021/07/26 08:06:40;;;;;;;3.22;2.40;;;;;;;;;;5026862;28;20025;-78
2021/07/26 08:09:05;;;;;;;2.22;2.03;;;;;;;;;;5032414;28;20021;-78
2021/07/26 08:11:35;;;;;;;2.73;2.40;;;;;;;;;;5031227;28;20040;-78
2021/07/26 08:14:01;;;;;;;4.00;2.03;;;;;;;;;;5033704;28;20252;-78
2021/07/26 08:16:26;;;;;;;2.97;2.35;;;;;;;;;;5030802;28;20108;-78
2021/07/26 08:18:51;;;;;;;4.25;2.40;;;;;;;;;;5031665;28;20018;-78
2021/07/26 08:21:16;;;;;;;4.03;2.73;;;;;;;;;;5032593;28;20046;-78
2021/07/26 08:23:42;;;;;;;3.20;2.28;;;;;;;;;;5033316;28;20268;-78
2021/07/26 08:26:07;;;;;;;3.13;2.53;;;;;;;;;;5029121;28;20018;-78
2021/07/26 08:28:32;;;;;;;2.83;2.00;;;;;;;;;;5028344;28;20029;-78
2021/07/26 08:31:00;;;;;;;3.03;2.27;;;;;;;;;;5031725;28;20252;-78
2021/07/26 08:33:28;;;;;;;2.30;2.10;;;;;;;;;;5028727;28;20260;-78
2021/07/26 08:35:58;;;;;;;2.17;1.95;;;;;;;;;;5021303;28;20080;-80
2021/07/26 08:38:23;;;;;;;3.90;2.35;;;;;;;;;;5023314;28;20022;-79
2021/07/26 08:40:49;;;;;;;2.50;2.00;;;;;;;;;;5021127;28;20033;-83
2021/07/26 08:43:15;;;;;;;4.22;2.00;;;;;;;;;;5019644;28;20284;-84
2021/07/26 08:45:42;;;;;;;3.55;2.30;;;;;;;;;;5016713;28;20068;-80
2021/07/26 08:48:08;;;;;;;2.30;2.10;;;;;;;;;;5017245;28;20537;-80
2021/07/26 08:50:37;;;;;;;3.95;2.20;;;;;;;;;;5025969;28;20529;-80
2021/07/26 08:53:03;;;;;;;3.90;2.08;;;;;;;;;;5019390;28;20341;-80
2021/07/26 08:55:29;;;;;;;3.33;2.20;;;;;;;;;;5063542;28;20083;-80
2021/07/26 08:57:55;;;;;;;3.47;2.30;;;;;;;;;;5020716;28;20093;-80
2021/07/26 09:00:20;;;;;;;2.25;1.83;;;;;;;;;;5029176;28;20113;-79
2021/07/26 09:02:46;;;;;;;4.07;2.30;;;;;;;;;;5023529;28;20032;-80
2021/07/26 09:05:12;;;;;;;2.38;2.00;;;;;;;;;;5022784;28;20013;-80
2021/07/26 09:07:43;;;;;;;5.90;2.00;;;;;;;;;;5019379;28;20022;-76
2021/07/26 09:10:18;;;;;;;2.42;2.00;;;;;;;;;;5021342;28;20018;-78
2021/07/26 09:12:45;;;;;;;2.50;2.08;;;;;;;;;;5026746;28;20036;-76
2021/07/26 09:15:30;;;;;;;2.63;2.08;;;;;;;;;;5027274;28;20087;-77
2021/07/26 09:17:57;;;;;;;2.30;2.10;;;;;;;;;;5019585;28;20037;-76
2021/07/26 09:20:28;;;;;;;4.38;1.98;;;;;;;;;;5030877;28;20040;-77
2021/07/26 09:22:56;;;;;;;2.35;1.90;;;;;;;;;;5017527;28;20045;-77
2021/07/26 09:25:21;;;;;;;2.72;1.75;;;;;;;;;;5019234;28;20026;-77
2021/07/26 09:27:57;;;;;;;4.05;1.90;;;;;;;;;;5015760;28;20487;-76
2021/07/26 09:30:22;;;;;;;2.85;2.10;;;;;;;;;;5028113;28;20046;-77
2021/07/26 09:32:47;;;;;;;2.03;1.83;;;;;;;;;;5014403;28;20061;-77
2021/07/26 09:35:13;;;;;;;2.70;1.90;;;;;;;;;;5016014;28;20307;-76
2021/07/26 09:37:40;;;;;;;3.55;2.00;;;;;;;;;;5022754;28;20111;-77
2021/07/26 09:40:22;;;;;;;3.08;1.88;;;;;;;;;;5019376;28;20054;-77
2021/07/26 09:42:50;;;;;;;2.30;2.10;;;;;;;;;;5026011;28;20022;-77
2021/07/26 09:45:25;;;;;;;3.72;2.20;;;;;;;;;;5017176;28;20050;-77
2021/07/26 09:48:06;;;;;;;3.00;1.90;;;;;;;;;;5012990;28;20495;-77
2021/07/26 09:50:35;;;;;;;2.42;1.92;;;;;;;;;;5016943;28;20061;-77
2021/07/26 09:53:08;;;;;;;2.67;1.90;;;;;;;;;;5032946;28;20029;-77
2021/07/26 09:55:34;;;;;;;1.77;1.67;;;;;;;;;;5032887;28;20095;-76
2021/07/26 09:58:06;;;;;;;2.65;1.75;;;;;;;;;;5014618;28;20076;-77
2021/07/26 10:00:34;;;;;;;2.05;1.70;;;;;;;;;;5013129;28;20014;-77
2021/07/26 10:02:59;;;;;;;3.65;1.90;;;;;;;;;;5013137;28;20014;-77
2021/07/26 10:05:28;;;;;;;1.92;1.80;;;;;;;;;;5025876;28;20584;-77
2021/07/26 10:07:56;;;;;;;3.00;1.83;;;;;;;;;;5032758;28;20451;-77
2021/07/26 10:10:24;;;;;;;6.25;1.90;;;;;;;;;;5019993;28;20034;-77
2021/07/26 10:12:51;;;;;;;2.35;2.10;;;;;;;;;;5013256;28;20018;-77
2021/07/26 10:15:19;;;;;;;4.13;1.95;;;;;;;;;;5021586;28;20040;-77
2021/07/26 10:17:45;;;;;;;2.63;2.00;;;;;;;;;;5032830;28;20031;-77
2021/07/26 10:20:10;;;;;;;2.85;2.08;;;;;;;;;;5035799;28;20100;-77
2021/07/26 10:22:38;;;;;;;2.30;2.00;;;;;;;;;;5036602;28;20542;-76
2021/07/26 10:25:11;;;;;;;2.53;1.92;;;;;;;;;;5036556;28;20025;-77
2021/07/26 10:27:38;;;;;;;2.33;1.90;;;;;;;;;;5036742;28;20451;-77
2021/07/26 10:30:03;;;;;;;2.28;1.80;;;;;;;;;;5034732;28;20060;-76
2021/07/26 10:32:28;;;;;;;2.00;1.70;;;;;;;;;;5036542;28;20450;-77
2021/07/26 10:34:54;;;;;;;2.57;1.77;;;;;;;;;;5035760;28;20056;-77
2021/07/26 10:37:39;;;;;;;3.42;2.10;;;;;;;;;;5036378;28;20351;-77
2021/07/26 10:40:23;;;;;;;3.23;2.00;;;;;;;;;;5017866;28;20026;-77
2021/07/26 10:42:49;;;;;;;2.00;1.80;;;;;;;;;;5036060;28;20100;-76
2021/07/26 10:45:37;;;;;;;2.08;1.85;;;;;;;;;;5036293;28;20092;-76
2021/07/26 10:48:21;;;;;;;3.33;2.00;;;;;;;;;;5025566;28;20068;-76
2021/07/26 10:50:50;;;;;;;3.35;1.90;;;;;;;;;;5015186;28;20365;-76
2021/07/26 10:53:34;;;;;;;2.95;1.90;;;;;;;;;;5015207;28;20352;-75
2021/07/26 10:56:09;;;;;;;3.03;1.90;;;;;;;;;;5016362;28;20080;-76
2021/07/26 10:58:40;;;;;;;3.22;1.95;;;;;;;;;;5015705;28;20092;-77
2021/07/26 11:01:21;;;;;;;4.18;1.90;;;;;;;;;;5016112;28;20053;-75
2021/07/26 11:03:47;;;;;;;3.08;2.00;;;;;;;;;;5016033;28;20025;-75
2021/07/26 11:06:31;;;;;;;3.13;1.83;;;;;;;;;;5015618;28;20022;-75
2021/07/26 11:09:19;;;;;;;2.17;1.77;;;;;;;;;;5015774;28;20112;-75
2021/07/26 11:11:50;;;;;;;2.05;1.70;;;;;;;;;;5023808;28;20017;-78
2021/07/26 11:14:18;;;;;;;2.85;1.50;;;;;;;;;;5035798;28;20037;-76
2021/07/26 11:16:48;;;;;;;2.50;1.52;;;;;;;;;;5027610;28;20104;-76
2021/07/26 11:19:33;;;;;;;1.92;1.20;;;;;;;;;;5035220;28;20032;-77
2021/07/26 11:21:58;;;;;;;2.05;1.45;;;;;;;;;;5030560;28;20022;-76
2021/07/26 11:24:38;;;;;;;2.88;1.30;;;;;;;;;;5035402;28;20087;-77
2021/07/26 11:27:06;;;;;;;3.80;1.50;;;;;;;;;;5021188;28;20057;-79
2021/07/26 11:29:31;;;;;;;2.35;1.35;;;;;;;;;;5025414;28;20383;-79
2021/07/26 11:31:59;;;;;;;2.95;1.50;;;;;;;;;;5032217;28;20087;-76
2021/07/26 11:34:28;;;;;;;3.20;1.80;;;;;;;;;;5033474;28;20111;-76
2021/07/26 11:37:09;;;;;;;2.33;1.60;;;;;;;;;;5026206;28;20142;-76
2021/07/26 11:39:54;;;;;;;2.25;1.50;;;;;;;;;;5025230;28;20112;-84
2021/07/26 11:42:39;;;;;;;1.70;1.58;;;;;;;;;;5034724;28;20018;-83
2021/07/26 11:45:05;;;;;;;12.13;4.07;;;;;;;;;;5035047;28;20530;-84
2021/07/26 11:47:38;;;;;;;3.97;1.90;;;;;;;;;;5033675;28;20431;-83
2021/07/26 11:50:09;;;;;;;2.88;2.10;;;;;;;;;;5034642;28;20500;-83
2021/07/26 11:52:40;;;;;;;3.33;1.92;;;;;;;;;;5033957;28;20025;-83
2021/07/26 11:55:12;;;;;;;2.75;1.90;;;;;;;;;;5033367;28;20460;-83
2021/07/26 11:57:37;;;;;;;2.28;1.63;;;;;;;;;;5014761;28;20424;-84
2021/07/26 12:00:06;;;;;;;6.23;1.97;;;;;;;;;;5014806;28;20033;-83
2021/07/26 12:02:34;;;;;;;3.17;1.73;;;;;;;;;;5015169;28;20049;-84
2021/07/26 12:05:03;;;;;;;3.13;1.90;;;;;;;;;;5021356;28;20429;-81
2021/07/26 12:07:44;;;;;;;2.22;1.70;;;;;;;;;;5033630;28;20018;-82
2021/07/26 12:10:10;;;;;;;2.00;1.80;;;;;;;;;;5034547;28;20356;-82
2021/07/26 12:12:39;;;;;;;5.80;1.60;;;;;;;;;;5034602;28;20014;-82
2021/07/26 12:15:25;;;;;;;3.97;1.88;;;;;;;;;;5034660;28;20021;-82
2021/07/26 12:18:00;;;;;;;4.15;1.70;;;;;;;;;;5020551;28;20065;-83
2021/07/26 12:20:28;;;;;;;3.97;1.80;;;;;;;;;;5031386;28;20155;-82
2021/07/26 12:22:55;;;;;;;2.28;1.30;;;;;;;;;;5027748;28;20026;-79
2021/07/26 12:25:25;;;;;;;1.98;1.45;;;;;;;;;;5030452;28;20025;-82
2021/07/26 12:27:58;;;;;;;2.72;1.20;;;;;;;;;;5030839;28;20018;-78
2021/07/26 12:30:34;;;;;;;1.58;1.40;;;;;;;;;;5032501;28;20495;-77
2021/07/26 12:32:59;;;;;;;0.90;0.90;;;;;;;;;;5031952;28;20077;-79
2021/07/26 12:35:26;;;;;;;5.57;1.10;;;;;;;;;;5031310;28;20067;-80
2021/07/26 12:38:01;;;;;;;2.13;1.20;;;;;;;;;;5031521;28;20014;-77
2021/07/26 12:40:27;;;;;;;2.22;1.20;;;;;;;;;;5032878;28;20029;-76
2021/07/26 12:43:05;;;;;;;1.77;1.10;;;;;;;;;;5032758;28;20079;-77
2021/07/26 12:45:30;;;;;;;1.40;1.02;;;;;;;;;;5033973;28;20475;-74
2021/07/26 12:47:56;;;;;;;1.50;1.03;;;;;;;;;;5030781;28;20101;-77
2021/07/26 12:50:21;;;;;;;1.92;1.30;;;;;;;;;;5033307;28;20265;-76
2021/07/26 12:52:47;;;;;;;1.50;1.40;;;;;;;;;;5033521;28;20509;-77
2021/07/26 12:55:16;;;;;;;3.20;1.30;;;;;;;;;;5032597;28;20022;-77
2021/07/26 12:57:41;;;;;;;1.30;1.20;;;;;;;;;;5026701;28;20041;-79
2021/07/26 13:00:07;;;;;;;4.53;1.30;;;;;;;;;;5025867;28;20048;-77
2021/07/26 13:02:32;;;;;;;2.70;1.25;;;;;;;;;;5029613;28;20545;-77
2021/07/26 13:05:00;;;;;;;2.85;1.10;;;;;;;;;;5028772;28;20014;-75
2021/07/26 13:07:25;;;;;;;2.85;1.30;;;;;;;;;;5050669;28;20021;-77
2021/07/26 13:09:50;;;;;;;1.73;1.20;;;;;;;;;;5024412;28;20472;-77
2021/07/26 13:12:16;;;;;;;1.73;1.27;;;;;;;;;;5024184;28;20144;-77
2021/07/26 13:14:41;;;;;;;2.08;1.10;;;;;;;;;;5025868;28;20435;-79
2021/07/26 13:17:06;;;;;;;2.77;1.60;;;;;;;;;;5028496;28;20411;-78
2021/07/26 13:19:31;;;;;;;1.60;1.20;;;;;;;;;;5021815;28;20436;-78
2021/07/26 13:21:57;;;;;;;1.80;1.30;;;;;;;;;;5026234;28;20053;-79
2021/07/26 13:24:22;;;;;;;2.53;1.33;;;;;;;;;;5023476;28;20050;-79
2021/07/26 13:26:47;;;;;;;2.90;1.23;;;;;;;;;;5015893;28;20014;-78
2021/07/26 13:29:15;;;;;;;3.13;1.47;;;;;;;;;;5027172;28;20090;-79
2021/07/26 13:31:43;;;;;;;4.32;1.23;;;;;;;;;;5029712;28;20045;-79
2021/07/26 13:34:08;;;;;;;1.20;1.10;;;;;;;;;;5029722;28;20114;-79
2021/07/26 13:36:38;;;;;;;2.20;1.15;;;;;;;;;;5026489;28;20068;-79
2021/07/26 13:39:04;;;;;;;1.50;1.40;;;;;;;;;;5028171;28;20014;-78
2021/07/26 13:41:29;;;;;;;4.10;1.30;;;;;;;;;;5025210;28;20041;-78
2021/07/26 13:43:54;;;;;;;1.77;1.20;;;;;;;;;;5018397;28;20448;-77
2021/07/26 13:46:19;;;;;;;1.47;1.30;;;;;;;;;;5022398;28;20043;-80
2021/07/26 13:48:47;;;;;;;2.33;1.20;;;;;;;;;;5027713;28;20466;-78
2021/07/26 13:51:12;;;;;;;1.98;1.70;;;;;;;;;;5020432;28;20018;-79
2021/07/26 13:53:40;;;;;;;4.20;1.30;;;;;;;;;;5026592;28;20018;-79
2021/07/26 13:56:05;;;;;;;1.77;1.30;;;;;;;;;;5034807;28;20364;-79
2021/07/26 13:58:31;;;;;;;2.53;1.27;;;;;;;;;;5036264;28;20519;-79
2021/07/26 14:00:56;;;;;;;1.93;1.50;;;;;;;;;;5036191;28;20449;-78
2021/07/26 14:03:21;;;;;;;1.43;1.30;;;;;;;;;;5036252;28;20452;-79
2021/07/26 14:05:46;;;;;;;2.93;1.53;;;;;;;;;;5033092;28;20674;-79
2021/07/26 14:08:14;;;;;;;1.33;1.23;;;;;;;;;;5032669;28;20017;-79
2021/07/26 14:10:39;;;;;;;2.58;1.60;;;;;;;;;;5027178;28;20021;-79
2021/07/26 14:13:05;;;;;;;2.88;1.63;;;;;;;;;;5028547;28;20099;-79
2021/07/26 14:15:30;;;;;;;2.00;1.40;;;;;;;;;;5035629;28;20104;-80
2021/07/26 14:17:57;;;;;;;3.78;1.58;;;;;;;;;;5036072;28;20017;-79
2021/07/26 14:20:23;;;;;;;1.85;1.52;;;;;;;;;;5033290;28;20013;-79
2021/07/26 14:22:48;;;;;;;2.17;1.50;;;;;;;;;;5020576;28;20014;-79
2021/07/26 14:25:13;;;;;;;1.67;1.57;;;;;;;;;;5029806;28;20104;-79
2021/07/26 14:27:41;;;;;;;2.27;1.70;;;;;;;;;;5025497;28;20185;-79
2021/07/26 14:30:06;;;;;;;4.00;1.50;;;;;;;;;;5035172;28;20307;-79
2021/07/26 14:32:32;;;;;;;2.38;1.60;;;;;;;;;;5034840;28;20470;-79
2021/07/26 14:34:57;;;;;;;2.45;1.30;;;;;;;;;;5035422;28;20049;-78
2021/07/26 14:37:23;;;;;;;3.15;1.30;;;;;;;;;;5033221;28;20022;-78
2021/07/26 14:39:48;;;;;;;3.03;1.45;;;;;;;;;;5026994;28;20025;-79
2021/07/26 14:42:13;;;;;;;2.30;1.58;;;;;;;;;;5027485;28;20018;-78
2021/07/26 14:44:39;;;;;;;3.77;1.30;;;;;;;;;;5027695;28;20064;-78
2021/07/26 14:47:04;;;;;;;3.13;1.42;;;;;;;;;;5028016;28;20406;-78